Time;durP1;ratioP1;P1;durP2;ratioP2;P2;SDS_P1;SDS_P2;PMS_P1;PMS_P2;Temp;Humidity;BMP_temperature;BMP_pressure;BME280_temperature;BME280_humidity;BME280_pressure;Samples;Min_cycle;Max_cycle;Signal;HPM_P1;HPM_P2
2023/08/07 00:04:02;;;;;;;3.72;1.90;;;;;;;;;;10145697;28;20048;-69
2023/08/07 00:08:55;;;;;;;3.83;1.75;;;;;;;;;;10140805;28;20168;-71
2023/08/07 00:13:47;;;;;;;4.63;2.08;;;;;;;;;;10149902;28;20741;-70
2023/08/07 00:18:39;;;;;;;13.68;3.25;;;;;;;;;;10141290;28;20135;-69
2023/08/07 00:23:31;;;;;;;3.22;1.73;;;;;;;;;;10142513;28;20134;-71
2023/08/07 00:28:23;;;;;;;7.28;2.10;;;;;;;;;;10142606;28;20041;-71
2023/08/07 00:33:15;;;;;;;2.92;1.92;;;;;;;;;;10153596;28;20040;-70
2023/08/07 00:38:07;;;;;;;6.05;1.98;;;;;;;;;;10167698;28;20067;-72
2023/08/07 00:42:59;;;;;;;6.13;1.92;;;;;;;;;;10160093;28;20127;-70
2023/08/07 00:47:51;;;;;;;5.97;1.77;;;;;;;;;;10161088;28;20059;-71
2023/08/07 00:52:43;;;;;;;5.15;2.17;;;;;;;;;;10149402;28;20047;-71
2023/08/07 00:57:36;;;;;;;9.18;1.83;;;;;;;;;;10147019;28;20135;-69
2023/08/07 01:02:28;;;;;;;6.00;1.90;;;;;;;;;;10171324;28;20048;-70
2023/08/07 01:07:21;;;;;;;9.10;2.33;;;;;;;;;;10188995;28;20032;-69
2023/08/07 01:12:15;;;;;;;6.80;1.98;;;;;;;;;;10186239;28;20382;-70
2023/08/07 01:17:20;;;;;;;7.10;2.03;;;;;;;;;;10147040;28;20062;-72
2023/08/07 01:22:15;;;;;;;7.03;1.63;;;;;;;;;;10167630;28;20097;-69
2023/08/07 01:27:22;;;;;;;6.00;1.60;;;;;;;;;;10169893;28;20052;-70
2023/08/07 01:32:19;;;;;;;5.68;2.22;;;;;;;;;;10183805;28;20045;-71
2023/08/07 01:37:12;;;;;;;5.50;1.60;;;;;;;;;;10169448;28;20056;-71
2023/08/07 01:42:04;;;;;;;8.38;1.77;;;;;;;;;;10145764;28;20039;-70
2023/08/07 01:46:56;;;;;;;3.65;1.60;;;;;;;;;;10176207;28;20043;-71
2023/08/07 01:51:49;;;;;;;5.63;1.70;;;;;;;;;;10146453;28;20072;-71
2023/08/07 01:56:41;;;;;;;2.40;1.45;;;;;;;;;;10224205;28;20048;-72
2023/08/07 02:01:33;;;;;;;3.15;1.63;;;;;;;;;;10154155;28;20040;-71
2023/08/07 02:06:25;;;;;;;3.17;1.92;;;;;;;;;;10160397;28;20041;-71
2023/08/07 02:11:17;;;;;;;2.22;1.30;;;;;;;;;;10146314;28;20032;-72
2023/08/07 02:16:09;;;;;;;1.48;1.10;;;;;;;;;;10144743;28;20037;-72
2023/08/07 02:21:01;;;;;;;1.48;1.15;;;;;;;;;;10144214;28;20872;-72
2023/08/07 02:25:53;;;;;;;2.00;1.17;;;;;;;;;;10160548;28;20052;-72
2023/08/07 02:30:48;;;;;;;4.97;1.40;;;;;;;;;;10150769;28;20044;-70
2023/08/07 02:35:40;;;;;;;3.50;1.50;;;;;;;;;;10143430;28;20044;-73
2023/08/07 02:40:32;;;;;;;1.52;1.17;;;;;;;;;;10144092;28;20049;-73
2023/08/07 02:45:24;;;;;;;2.10;1.23;;;;;;;;;;10143245;28;20048;-71
2023/08/07 02:50:16;;;;;;;4.15;1.60;;;;;;;;;;10144613;28;20370;-73
2023/08/07 02:55:08;;;;;;;3.33;1.10;;;;;;;;;;10152843;28;20131;-73
2023/08/07 03:00:00;;;;;;;1.02;0.93;;;;;;;;;;10142358;28;20374;-73
2023/08/07 03:04:51;;;;;;;2.10;1.02;;;;;;;;;;10142563;28;20377;-73
2023/08/07 03:09:49;;;;;;;2.13;1.15;;;;;;;;;;10140593;28;20470;-72
2023/08/07 03:14:41;;;;;;;1.42;0.98;;;;;;;;;;10140084;28;20032;-73
2023/08/07 03:19:33;;;;;;;1.80;1.23;;;;;;;;;;10143156;28;20094;-74
2023/08/07 03:24:25;;;;;;;2.50;1.10;;;;;;;;;;10173136;28;20048;-72
2023/08/07 03:29:17;;;;;;;2.10;1.10;;;;;;;;;;10173126;28;20044;-73
2023/08/07 03:34:09;;;;;;;2.08;1.25;;;;;;;;;;10164526;28;20040;-73
2023/08/07 03:39:01;;;;;;;1.95;1.00;;;;;;;;;;10143202;28;20398;-71
2023/08/07 03:43:53;;;;;;;0.80;0.80;;;;;;;;;;10141153;28;20040;-71
2023/08/07 03:48:45;;;;;;;1.35;0.93;;;;;;;;;;10141713;28;20076;-71
2023/08/07 03:53:38;;;;;;;1.50;1.00;;;;;;;;;;10170775;28;20485;-72
2023/08/07 03:58:30;;;;;;;1.40;0.90;;;;;;;;;;10163529;28;20125;-73
2023/08/07 04:03:22;;;;;;;1.63;0.80;;;;;;;;;;10140258;28;20439;-71
2023/08/07 04:08:15;;;;;;;1.63;0.85;;;;;;;;;;10141142;28;20040;-69
2023/08/07 04:13:06;;;;;;;0.77;0.70;;;;;;;;;;10145166;28;20036;-70
2023/08/07 04:17:58;;;;;;;1.25;0.88;;;;;;;;;;10140836;28;20040;-70
2023/08/07 04:22:50;;;;;;;1.00;0.90;;;;;;;;;;10154090;28;20471;-70
2023/08/07 04:27:42;;;;;;;1.08;0.85;;;;;;;;;;10147383;28;20082;-69
2023/08/07 04:32:34;;;;;;;1.23;0.90;;;;;;;;;;10146584;28;20043;-69
2023/08/07 04:37:26;;;;;;;0.85;0.80;;;;;;;;;;10147190;28;20604;-69
2023/08/07 04:42:18;;;;;;;2.78;0.90;;;;;;;;;;10149533;28;20051;-71
2023/08/07 04:47:11;;;;;;;1.00;1.00;;;;;;;;;;10147889;28;20041;-72
2023/08/07 04:52:03;;;;;;;2.80;1.00;;;;;;;;;;10152993;28;20040;-69
2023/08/07 04:57:15;;;;;;;2.58;0.80;;;;;;;;;;10180050;28;20064;-72
2023/08/07 05:02:07;;;;;;;2.13;1.85;;;;;;;;;;10158356;28;20047;-72
2023/08/07 05:06:58;;;;;;;1.50;1.38;;;;;;;;;;10160303;28;20084;-72
2023/08/07 05:11:50;;;;;;;1.60;1.50;;;;;;;;;;10177707;28;20040;-72
2023/08/07 05:16:42;;;;;;;3.28;1.52;;;;;;;;;;10154153;28;20044;-73
2023/08/07 05:21:34;;;;;;;2.92;1.10;;;;;;;;;;10180841;28;20086;-65
2023/08/07 05:26:26;;;;;;;0.77;0.70;;;;;;;;;;10187330;28;20040;-66
2023/08/07 05:31:18;;;;;;;0.75;0.75;;;;;;;;;;10153512;28;20044;-65
2023/08/07 05:36:10;;;;;;;0.95;0.90;;;;;;;;;;10146540;28;20627;-63
2023/08/07 05:41:01;;;;;;;1.30;1.10;;;;;;;;;;10145244;28;20044;-65
2023/08/07 05:45:53;;;;;;;1.65;1.20;;;;;;;;;;10169549;28;20053;-65
2023/08/07 05:50:45;;;;;;;0.88;0.88;;;;;;;;;;10165342;28;20083;-66
2023/08/07 05:55:41;;;;;;;2.28;0.80;;;;;;;;;;10162293;28;20093;-63
2023/08/07 06:00:33;;;;;;;1.08;0.80;;;;;;;;;;10163255;28;20052;-65
2023/08/07 06:05:25;;;;;;;4.95;1.95;;;;;;;;;;10145324;28;20041;-66
2023/08/07 06:10:17;;;;;;;0.65;0.65;;;;;;;;;;10144987;28;20584;-65
2023/08/07 06:15:09;;;;;;;0.68;0.68;;;;;;;;;;10166624;28;20052;-65
2023/08/07 06:20:04;;;;;;;0.85;0.60;;;;;;;;;;10186046;28;20056;-65
2023/08/07 06:24:56;;;;;;;1.48;0.80;;;;;;;;;;10173722;28;20076;-65
2023/08/07 06:29:47;;;;;;;0.98;0.70;;;;;;;;;;10144227;28;20076;-65
2023/08/07 06:34:39;;;;;;;1.50;0.73;;;;;;;;;;10144672;28;20064;-65
2023/08/07 06:39:31;;;;;;;1.17;0.70;;;;;;;;;;10188190;28;20076;-64
2023/08/07 06:44:23;;;;;;;0.50;0.50;;;;;;;;;;10145883;28;20052;-65
2023/08/07 06:49:15;;;;;;;0.70;0.65;;;;;;;;;;10144031;28;20040;-66
2023/08/07 06:54:07;;;;;;;2.88;0.80;;;;;;;;;;10155792;28;20055;-65
2023/08/07 06:58:59;;;;;;;1.27;0.90;;;;;;;;;;10142434;28;20060;-65
2023/08/07 07:03:52;;;;;;;0.60;0.60;;;;;;;;;;10142187;28;20068;-63
2023/08/07 07:08:44;;;;;;;0.75;0.68;;;;;;;;;;10143332;28;20125;-65
2023/08/07 07:13:37;;;;;;;1.27;0.77;;;;;;;;;;10145919;28;20036;-64
2023/08/07 07:18:28;;;;;;;0.88;0.80;;;;;;;;;;10168557;28;20124;-65
2023/08/07 07:23:20;;;;;;;1.70;0.82;;;;;;;;;;10163960;28;20040;-65
2023/08/07 07:28:12;;;;;;;0.55;0.50;;;;;;;;;;10141235;28;20071;-63
2023/08/07 07:33:04;;;;;;;0.90;0.70;;;;;;;;;;10180440;28;20879;-64
2023/08/07 07:37:56;;;;;;;0.73;0.60;;;;;;;;;;10147172;28;20117;-65
2023/08/07 07:42:48;;;;;;;2.35;0.70;;;;;;;;;;10171989;28;20425;-65
2023/08/07 07:47:40;;;;;;;1.02;0.70;;;;;;;;;;10140321;28;20056;-64
2023/08/07 07:52:32;;;;;;;3.38;0.80;;;;;;;;;;10141156;28;20048;-66
2023/08/07 07:57:24;;;;;;;0.65;0.65;;;;;;;;;;10140448;28;20044;-64
2023/08/07 08:02:17;;;;;;;0.68;0.68;;;;;;;;;;10155045;28;20127;-66
2023/08/07 08:07:08;;;;;;;3.42;0.60;;;;;;;;;;10153223;28;20040;-65
2023/08/07 08:12:00;;;;;;;0.98;0.60;;;;;;;;;;10153098;28;20475;-66
2023/08/07 08:16:53;;;;;;;0.50;0.50;;;;;;;;;;10152226;28;20048;-66
2023/08/07 08:21:45;;;;;;;1.00;0.68;;;;;;;;;;10141247;28;20363;-67
2023/08/07 08:26:37;;;;;;;0.65;0.65;;;;;;;;;;10141677;28;20036;-64
2023/08/07 08:31:29;;;;;;;2.70;1.33;;;;;;;;;;10141409;28;20522;-67
2023/08/07 08:36:21;;;;;;;0.60;0.60;;;;;;;;;;10141141;28;20044;-67
2023/08/07 08:41:13;;;;;;;0.60;0.60;;;;;;;;;;10141266;28;20059;-67
2023/08/07 08:46:05;;;;;;;0.98;0.70;;;;;;;;;;10164041;28;20078;-66
2023/08/07 08:50:57;;;;;;;0.57;0.40;;;;;;;;;;10170821;28;20040;-66
2023/08/07 08:55:50;;;;;;;0.75;0.57;;;;;;;;;;10141529;28;20400;-68
2023/08/07 09:00:42;;;;;;;0.70;0.70;;;;;;;;;;10159924;28;20075;-69
2023/08/07 09:05:35;;;;;;;0.60;0.50;;;;;;;;;;10159999;28;20044;-67
2023/08/07 09:10:27;;;;;;;1.08;0.60;;;;;;;;;;10182276;28;20040;-66
2023/08/07 09:15:20;;;;;;;0.73;0.60;;;;;;;;;;10157437;28;20128;-67
2023/08/07 09:20:13;;;;;;;0.60;0.60;;;;;;;;;;10146106;28;20049;-67
2023/08/07 09:25:05;;;;;;;0.85;0.80;;;;;;;;;;10147863;28;20041;-66
2023/08/07 09:29:58;;;;;;;3.58;0.68;;;;;;;;;;10145844;28;20060;-67
2023/08/07 09:34:51;;;;;;;3.17;0.57;;;;;;;;;;10146544;28;20141;-66
2023/08/07 09:39:43;;;;;;;0.65;0.65;;;;;;;;;;10155648;28;20048;-66
2023/08/07 09:44:36;;;;;;;0.50;0.50;;;;;;;;;;10176147;28;20455;-65
2023/08/07 09:49:32;;;;;;;2.08;0.57;;;;;;;;;;10170626;28;20059;-67
2023/08/07 09:54:24;;;;;;;0.50;0.50;;;;;;;;;;10183702;28;20079;-67
2023/08/07 09:59:16;;;;;;;0.68;0.68;;;;;;;;;;10141849;28;20098;-66
2023/08/07 10:04:10;;;;;;;1.90;0.82;;;;;;;;;;10167753;28;20048;-66
2023/08/07 10:09:03;;;;;;;2.25;0.47;;;;;;;;;;10143427;28;20041;-64
2023/08/07 10:13:57;;;;;;;0.93;0.52;;;;;;;;;;10160894;28;20036;-65
2023/08/07 10:18:49;;;;;;;3.00;0.60;;;;;;;;;;10174175;28;20090;-65
2023/08/07 10:23:42;;;;;;;1.10;0.70;;;;;;;;;;10181643;28;20051;-67
2023/08/07 10:28:37;;;;;;;0.57;0.57;;;;;;;;;;10139100;28;20055;-67
2023/08/07 10:33:30;;;;;;;0.65;0.47;;;;;;;;;;10141060;28;20057;-66
2023/08/07 10:38:23;;;;;;;0.70;0.70;;;;;;;;;;10148397;28;20462;-66
2023/08/07 10:43:18;;;;;;;2.90;1.58;;;;;;;;;;10172141;28;20048;-66
2023/08/07 10:48:18;;;;;;;0.60;0.60;;;;;;;;;;10159577;28;20052;-65
2023/08/07 10:53:10;;;;;;;0.68;0.68;;;;;;;;;;10167799;28;20068;-65
2023/08/07 10:58:01;;;;;;;0.90;0.70;;;;;;;;;;10181478;28;20051;-67
2023/08/07 11:02:54;;;;;;;0.50;0.50;;;;;;;;;;10182904;28;20189;-65
2023/08/07 11:07:46;;;;;;;1.20;0.70;;;;;;;;;;10168765;28;20055;-66
2023/08/07 11:12:37;;;;;;;0.57;0.50;;;;;;;;;;10173834;28;20044;-68
2023/08/07 11:17:29;;;;;;;0.50;0.50;;;;;;;;;;10170525;28;20086;-66
2023/08/07 11:22:22;;;;;;;0.45;0.45;;;;;;;;;;10183789;28;20539;-65
2023/08/07 11:27:14;;;;;;;0.80;0.60;;;;;;;;;;10165450;28;20105;-65
2023/08/07 11:32:06;;;;;;;0.60;0.60;;;;;;;;;;10175202;28;20537;-66
2023/08/07 11:37:00;;;;;;;0.55;0.55;;;;;;;;;;10158174;28;20080;-65
2023/08/07 11:41:55;;;;;;;0.52;0.50;;;;;;;;;;10148118;28;20086;-67
2023/08/07 11:46:46;;;;;;;0.40;0.40;;;;;;;;;;10154843;28;20045;-68
2023/08/07 11:51:39;;;;;;;3.83;0.95;;;;;;;;;;10164994;28;20431;-66
2023/08/07 11:56:30;;;;;;;0.47;0.47;;;;;;;;;;10156013;28;20424;-67
2023/08/07 12:01:24;;;;;;;1.35;0.60;;;;;;;;;;10166653;28;20486;-66
2023/08/07 12:06:16;;;;;;;0.95;0.60;;;;;;;;;;10151023;28;20047;-64
2023/08/07 12:11:11;;;;;;;3.83;0.50;;;;;;;;;;10154270;28;20113;-67
2023/08/07 12:16:03;;;;;;;0.55;0.50;;;;;;;;;;10144054;28;20048;-65
2023/08/07 12:21:06;;;;;;;0.75;0.75;;;;;;;;;;10154483;28;20136;-66
2023/08/07 12:25:59;;;;;;;1.95;1.38;;;;;;;;;;10158755;28;20680;-66
2023/08/07 12:30:51;;;;;;;0.60;0.55;;;;;;;;;;10164207;28;20044;-67
2023/08/07 12:35:43;;;;;;;0.57;0.57;;;;;;;;;;10176247;28;20109;-67
2023/08/07 12:40:36;;;;;;;1.08;0.95;;;;;;;;;;10158761;28;20370;-67
2023/08/07 12:45:28;;;;;;;2.25;0.77;;;;;;;;;;10150216;28;20039;-66
2023/08/07 12:50:23;;;;;;;0.50;0.50;;;;;;;;;;10164438;28;20568;-65
2023/08/07 12:55:14;;;;;;;3.30;0.60;;;;;;;;;;10147200;28;20036;-66
2023/08/07 13:00:08;;;;;;;0.80;0.68;;;;;;;;;;10151071;28;20048;-65
2023/08/07 13:05:00;;;;;;;1.92;0.68;;;;;;;;;;10146133;28;20044;-68
2023/08/07 13:09:52;;;;;;;0.63;0.57;;;;;;;;;;10155208;28;20048;-66
2023/08/07 13:14:44;;;;;;;0.80;0.75;;;;;;;;;;10167164;28;20103;-67
2023/08/07 13:19:35;;;;;;;1.13;0.73;;;;;;;;;;10142307;28;20055;-67
2023/08/07 13:24:27;;;;;;;0.93;0.68;;;;;;;;;;10155344;28;20068;-67
2023/08/07 13:29:19;;;;;;;0.47;0.47;;;;;;;;;;10172265;28;20102;-66
2023/08/07 13:34:12;;;;;;;0.73;0.73;;;;;;;;;;10183475;28;20048;-65
2023/08/07 13:39:04;;;;;;;0.80;0.77;;;;;;;;;;10189137;28;20362;-67
2023/08/07 13:43:58;;;;;;;0.85;0.50;;;;;;;;;;10178393;28;20040;-65
2023/08/07 13:48:49;;;;;;;0.65;0.65;;;;;;;;;;10169940;28;20127;-64
2023/08/07 13:53:42;;;;;;;0.75;0.57;;;;;;;;;;10188109;28;20044;-65
2023/08/07 13:58:33;;;;;;;1.05;0.60;;;;;;;;;;10174998;28;20143;-68
2023/08/07 14:03:25;;;;;;;2.45;0.60;;;;;;;;;;10189266;28;20135;-66
2023/08/07 14:08:17;;;;;;;0.93;0.80;;;;;;;;;;10169223;28;20040;-68
2023/08/07 14:13:11;;;;;;;0.55;0.50;;;;;;;;;;10149283;28;20047;-65
2023/08/07 14:18:03;;;;;;;0.65;0.57;;;;;;;;;;10186292;28;20040;-67
2023/08/07 14:22:55;;;;;;;1.00;0.80;;;;;;;;;;10169263;28;20040;-65
2023/08/07 14:28:00;;;;;;;1.52;0.50;;;;;;;;;;10175925;28;20374;-67
2023/08/07 14:32:51;;;;;;;2.05;0.77;;;;;;;;;;10158024;28;20501;-65
2023/08/07 14:37:47;;;;;;;0.98;0.60;;;;;;;;;;10165241;28;20044;-66
2023/08/07 14:42:39;;;;;;;3.13;0.70;;;;;;;;;;10145211;28;20052;-66
2023/08/07 14:47:31;;;;;;;3.53;0.80;;;;;;;;;;10158332;28;20425;-65
2023/08/07 14:52:23;;;;;;;1.70;0.50;;;;;;;;;;10145331;28;20070;-67
2023/08/07 14:57:15;;;;;;;0.60;0.52;;;;;;;;;;10144388;28;20051;-66
2023/08/07 15:02:07;;;;;;;0.45;0.45;;;;;;;;;;10145016;28;20052;-66
2023/08/07 15:06:59;;;;;;;2.83;0.77;;;;;;;;;;10168519;28;20044;-66
2023/08/07 15:11:51;;;;;;;0.50;0.50;;;;;;;;;;10154556;28;20033;-65
2023/08/07 15:16:43;;;;;;;0.80;0.80;;;;;;;;;;10164234;28;20036;-66
2023/08/07 15:21:35;;;;;;;3.33;0.88;;;;;;;;;;10155385;28;20059;-66
2023/08/07 15:26:27;;;;;;;1.60;0.70;;;;;;;;;;10164875;28;20067;-63
2023/08/07 15:31:19;;;;;;;1.00;0.90;;;;;;;;;;10156791;28;20637;-67
2023/08/07 15:36:11;;;;;;;1.75;0.55;;;;;;;;;;10156206;28;20448;-64
2023/08/07 15:41:03;;;;;;;0.63;0.40;;;;;;;;;;10150810;28;20079;-66
2023/08/07 15:45:55;;;;;;;3.47;0.55;;;;;;;;;;10140541;28;20140;-66
2023/08/07 15:50:47;;;;;;;0.68;0.63;;;;;;;;;;10164048;28;20045;-68
2023/08/07 15:55:38;;;;;;;0.50;0.40;;;;;;;;;;10145029;28;20044;-67
2023/08/07 16:00:34;;;;;;;1.30;0.70;;;;;;;;;;10161183;28;20075;-65
2023/08/07 16:05:26;;;;;;;0.40;0.40;;;;;;;;;;10159265;28;20036;-66
2023/08/07 16:10:18;;;;;;;0.60;0.50;;;;;;;;;;10148485;28;20094;-65
2023/08/07 16:15:10;;;;;;;0.40;0.40;;;;;;;;;;10163630;28;20392;-69
2023/08/07 16:20:02;;;;;;;0.68;0.52;;;;;;;;;;10167452;28;20417;-69
2023/08/07 16:24:54;;;;;;;1.65;0.73;;;;;;;;;;10162418;28;20120;-69
2023/08/07 16:29:46;;;;;;;1.65;0.70;;;;;;;;;;10148464;28;20064;-69
2023/08/07 16:34:38;;;;;;;3.47;0.80;;;;;;;;;;10155158;28;20136;-69
2023/08/07 16:39:30;;;;;;;1.80;0.70;;;;;;;;;;10178107;28;20048;-71
2023/08/07 16:44:22;;;;;;;2.47;0.50;;;;;;;;;;10163339;28;20049;-68
2023/08/07 16:49:14;;;;;;;0.95;0.47;;;;;;;;;;10164270;28;20043;-66
2023/08/07 16:54:06;;;;;;;2.38;0.50;;;;;;;;;;10182472;28;20032;-68
2023/08/07 16:58:58;;;;;;;1.67;0.70;;;;;;;;;;10182727;28;20080;-68
2023/08/07 17:03:50;;;;;;;1.88;1.05;;;;;;;;;;10145356;28;20406;-67
2023/08/07 17:08:41;;;;;;;0.85;0.70;;;;;;;;;;10148756;28;20145;-69
2023/08/07 17:13:33;;;;;;;0.85;0.68;;;;;;;;;;10154308;28;20438;-67
2023/08/07 17:18:25;;;;;;;1.10;0.70;;;;;;;;;;10152283;28;20053;-64
2023/08/07 17:23:17;;;;;;;1.05;0.60;;;;;;;;;;10163507;28;20139;-64
2023/08/07 17:28:09;;;;;;;4.88;1.02;;;;;;;;;;10149156;28;20045;-64
2023/08/07 17:33:01;;;;;;;1.10;0.77;;;;;;;;;;10148490;28;20127;-64
2023/08/07 17:37:53;;;;;;;2.55;1.38;;;;;;;;;;10157000;28;20423;-63
2023/08/07 17:42:45;;;;;;;1.90;0.80;;;;;;;;;;10160391;28;20048;-65
2023/08/07 17:47:36;;;;;;;2.58;0.73;;;;;;;;;;10160719;28;20134;-64
2023/08/07 17:52:29;;;;;;;0.70;0.68;;;;;;;;;;10187720;28;20044;-65
2023/08/07 17:57:21;;;;;;;1.08;0.88;;;;;;;;;;10165700;28;20136;-66
2023/08/07 18:02:13;;;;;;;0.65;0.65;;;;;;;;;;10158727;28;20102;-64
2023/08/07 18:07:05;;;;;;;3.08;1.00;;;;;;;;;;10158211;28;20048;-66
2023/08/07 18:11:57;;;;;;;0.80;0.80;;;;;;;;;;10148390;28;20127;-65
2023/08/07 18:16:49;;;;;;;2.85;0.70;;;;;;;;;;10179759;28;20040;-66
2023/08/07 18:21:41;;;;;;;1.10;0.77;;;;;;;;;;10180639;28;21482;-65
2023/08/07 18:26:32;;;;;;;2.42;0.80;;;;;;;;;;10164460;28;20052;-67
2023/08/07 18:31:30;;;;;;;1.95;0.80;;;;;;;;;;10180300;28;20049;-65
2023/08/07 18:36:22;;;;;;;1.27;1.17;;;;;;;;;;10156297;28;20135;-65
2023/08/07 18:41:13;;;;;;;2.33;0.90;;;;;;;;;;10175043;28;20562;-65
2023/08/07 18:46:05;;;;;;;1.33;0.90;;;;;;;;;;10176396;28;20474;-65
2023/08/07 18:50:57;;;;;;;1.90;0.98;;;;;;;;;;10158155;28;20117;-64
2023/08/07 18:55:49;;;;;;;3.25;1.50;;;;;;;;;;10180659;28;20082;-65
2023/08/07 19:00:41;;;;;;;1.10;1.00;;;;;;;;;;10147800;28;20135;-65
2023/08/07 19:05:33;;;;;;;2.95;1.00;;;;;;;;;;10179691;28;20052;-65
2023/08/07 19:10:25;;;;;;;1.95;1.08;;;;;;;;;;10144724;28;20102;-64
2023/08/07 19:15:17;;;;;;;1.30;1.20;;;;;;;;;;10168951;28;20109;-65
2023/08/07 19:20:10;;;;;;;1.17;1.00;;;;;;;;;;10168662;28;20041;-64
2023/08/07 19:25:02;;;;;;;1.20;1.10;;;;;;;;;;10154245;28;20463;-64
2023/08/07 19:29:54;;;;;;;2.08;1.33;;;;;;;;;;10177469;28;20651;-67
2023/08/07 19:34:45;;;;;;;1.27;1.17;;;;;;;;;;10173034;28;20124;-65
2023/08/07 19:39:37;;;;;;;2.67;1.25;;;;;;;;;;10175851;28;20354;-67
2023/08/07 19:44:29;;;;;;;0.82;0.82;;;;;;;;;;10174328;28;20071;-67
2023/08/07 19:49:21;;;;;;;1.30;0.90;;;;;;;;;;10207512;28;20431;-65
2023/08/07 19:54:13;;;;;;;0.80;0.80;;;;;;;;;;10224588;28;20416;-67
2023/08/07 19:59:05;;;;;;;1.52;1.00;;;;;;;;;;10226188;28;20077;-66
2023/08/07 20:03:58;;;;;;;1.42;0.95;;;;;;;;;;10200554;28;20078;-68
2023/08/07 20:08:59;;;;;;;1.83;1.23;;;;;;;;;;10174185;28;20085;-70
2023/08/07 20:13:51;;;;;;;1.73;0.90;;;;;;;;;;10183645;28;20058;-69
2023/08/07 20:18:43;;;;;;;1.67;1.40;;;;;;;;;;10179360;28;20425;-70
2023/08/07 20:23:34;;;;;;;1.05;0.90;;;;;;;;;;10164063;28;20123;-69
2023/08/07 20:28:26;;;;;;;1.45;1.27;;;;;;;;;;10174676;28;20040;-68
2023/08/07 20:33:18;;;;;;;2.47;1.65;;;;;;;;;;10160710;28;20089;-68
2023/08/07 20:38:10;;;;;;;1.70;0.77;;;;;;;;;;10177852;28;20097;-67
2023/08/07 20:43:02;;;;;;;1.90;0.90;;;;;;;;;;10183021;28;20048;-68
2023/08/07 20:47:54;;;;;;;1.52;0.90;;;;;;;;;;10184180;28;20127;-67
2023/08/07 20:52:46;;;;;;;0.90;0.90;;;;;;;;;;10186443;28;20072;-68
2023/08/07 20:57:38;;;;;;;2.60;0.93;;;;;;;;;;10223228;28;20051;-67
2023/08/07 21:02:30;;;;;;;0.80;0.80;;;;;;;;;;10201300;28;20040;-65
2023/08/07 21:07:23;;;;;;;2.70;0.90;;;;;;;;;;10189185;28;20052;-67
2023/08/07 21:12:15;;;;;;;0.98;0.82;;;;;;;;;;10188169;28;20066;-68
2023/08/07 21:17:07;;;;;;;0.93;0.80;;;;;;;;;;10189027;28;20461;-67
2023/08/07 21:21:58;;;;;;;1.75;1.15;;;;;;;;;;10178187;28;20134;-68
2023/08/07 21:26:51;;;;;;;1.40;0.82;;;;;;;;;;10188272;28;20387;-70
2023/08/07 21:31:43;;;;;;;3.70;0.82;;;;;;;;;;10189435;28;20493;-69
2023/08/07 21:36:35;;;;;;;1.02;0.98;;;;;;;;;;10189571;28;20127;-67
2023/08/07 21:41:27;;;;;;;1.80;0.85;;;;;;;;;;10174846;28;20436;-68
2023/08/07 21:46:19;;;;;;;1.50;0.82;;;;;;;;;;10182517;28;20040;-67
2023/08/07 21:51:16;;;;;;;2.22;0.88;;;;;;;;;;10188782;28;20457;-68
2023/08/07 21:56:10;;;;;;;2.00;1.15;;;;;;;;;;10182426;28;20123;-68
2023/08/07 22:01:02;;;;;;;0.68;0.68;;;;;;;;;;10157498;28;20530;-67
2023/08/07 22:05:54;;;;;;;1.10;1.00;;;;;;;;;;10180744;28;20048;-69
2023/08/07 22:10:46;;;;;;;0.70;0.70;;;;;;;;;;10182338;28;20832;-67
2023/08/07 22:15:38;;;;;;;1.88;0.88;;;;;;;;;;10196381;28;20469;-68
2023/08/07 22:20:29;;;;;;;4.75;1.25;;;;;;;;;;10180757;28;20462;-68
2023/08/07 22:25:21;;;;;;;1.50;1.40;;;;;;;;;;10165659;28;20051;-69
2023/08/07 22:30:14;;;;;;;0.93;0.85;;;;;;;;;;10161506;28;20096;-67
2023/08/07 22:35:07;;;;;;;2.17;1.10;;;;;;;;;;10161378;28;20476;-70
2023/08/07 22:40:00;;;;;;;1.20;1.05;;;;;;;;;;10156030;28;20044;-80
2023/08/07 22:44:52;;;;;;;1.20;1.10;;;;;;;;;;10167769;27;20467;-78
2023/08/07 22:49:44;;;;;;;3.63;1.10;;;;;;;;;;10169836;28;20036;-80
2023/08/07 22:54:35;;;;;;;1.33;1.00;;;;;;;;;;10174781;28;20056;-79
2023/08/07 22:59:27;;;;;;;1.48;1.08;;;;;;;;;;10159445;28;20671;-80
2023/08/07 23:04:19;;;;;;;5.70;1.08;;;;;;;;;;10187756;28;20100;-80
2023/08/07 23:09:11;;;;;;;2.22;1.08;;;;;;;;;;10184521;28;20040;-78
2023/08/07 23:14:03;;;;;;;0.95;0.90;;;;;;;;;;10168375;28;20075;-79
2023/08/07 23:18:55;;;;;;;1.15;0.90;;;;;;;;;;10149437;28;20048;-79
2023/08/07 23:23:47;;;;;;;1.35;0.90;;;;;;;;;;10158372;28;20048;-80
2023/08/07 23:28:39;;;;;;;0.70;0.70;;;;;;;;;;10145200;28;20033;-78
2023/08/07 23:33:30;;;;;;;0.80;0.80;;;;;;;;;;10158741;28;20060;-79
2023/08/07 23:38:22;;;;;;;0.80;0.80;;;;;;;;;;10156623;28;20490;-79
2023/08/07 23:43:17;;;;;;;1.25;0.90;;;;;;;;;;10168764;28;20048;-79
2023/08/07 23:48:09;;;;;;;1.15;0.98;;;;;;;;;;10154740;28;20466;-79
2023/08/07 23:53:01;;;;;;;1.92;1.00;;;;;;;;;;10169357;28;20044;-79
2023/08/07 23:57:53;;;;;;;2.53;0.98;;;;;;;;;;10166586;28;20040;-78
